sensor_id;sensor_type;location;lat;lon;timestamp;pressure;altitude;pressure_sealevel;temperature;humidity
28267;BME280;15525;45.568;5.448;2024-02-23T00:00:48;96863.50;;;13.14;61.20
28267;BME280;15525;45.568;5.448;2024-02-23T00:03:14;96857.63;;;13.12;61.02
28267;BME280;15525;45.568;5.448;2024-02-23T00:05:40;96864.88;;;13.03;60.82
28267;BME280;15525;45.568;5.448;2024-02-23T00:08:06;96851.44;;;13.03;60.62
28267;BME280;15525;45.568;5.448;2024-02-23T00:10:32;96858.34;;;12.95;60.52
28267;BME280;15525;45.568;5.448;2024-02-23T00:12:57;96858.06;;;12.97;60.26
28267;BME280;15525;45.568;5.448;2024-02-23T00:15:23;96842.25;;;12.95;60.04
28267;BME280;15525;45.568;5.448;2024-02-23T00:17:50;96857.94;;;13.02;59.76
28267;BME280;15525;45.568;5.448;2024-02-23T00:20:15;96851.94;;;13.05;59.40
28267;BME280;15525;45.568;5.448;2024-02-23T00:22:41;96855.75;;;13.04;59.26
28267;BME280;15525;45.568;5.448;2024-02-23T00:25:06;96848.59;;;12.99;58.98
28267;BME280;15525;45.568;5.448;2024-02-23T00:27:32;96845.44;;;12.97;59.33
28267;BME280;15525;45.568;5.448;2024-02-23T00:29:57;96844.66;;;12.97;59.40
28267;BME280;15525;45.568;5.448;2024-02-23T00:32:23;96845.13;;;12.99;58.93
28267;BME280;15525;45.568;5.448;2024-02-23T00:34:48;96845.91;;;12.99;59.02
28267;BME280;15525;45.568;5.448;2024-02-23T00:37:13;96838.66;;;13.00;59.03
28267;BME280;15525;45.568;5.448;2024-02-23T00:39:40;96851.28;;;12.99;58.96
28267;BME280;15525;45.568;5.448;2024-02-23T00:42:05;96834.81;;;12.92;59.30
28267;BME280;15525;45.568;5.448;2024-02-23T00:44:31;96845.22;;;12.85;59.23
28267;BME280;15525;45.568;5.448;2024-02-23T00:46:56;96828.59;;;12.75;59.50
28267;BME280;15525;45.568;5.448;2024-02-23T00:49:26;96813.91;;;12.72;59.90
28267;BME280;15525;45.568;5.448;2024-02-23T00:51:51;96802.72;;;12.70;59.52
28267;BME280;15525;45.568;5.448;2024-02-23T00:54:17;96810.13;;;12.65;59.70
28267;BME280;15525;45.568;5.448;2024-02-23T00:56:42;96823.22;;;12.66;59.98
28267;BME280;15525;45.568;5.448;2024-02-23T00:59:07;96814.38;;;12.66;59.74
28267;BME280;15525;45.568;5.448;2024-02-23T01:01:33;96812.72;;;12.39;60.06
28267;BME280;15525;45.568;5.448;2024-02-23T01:03:58;96827.84;;;12.35;60.08
28267;BME280;15525;45.568;5.448;2024-02-23T01:06:24;96839.84;;;12.38;60.29
28267;BME280;15525;45.568;5.448;2024-02-23T01:08:50;96833.34;;;12.30;59.98
28267;BME280;15525;45.568;5.448;2024-02-23T01:11:15;96821.31;;;12.19;60.57
28267;BME280;15525;45.568;5.448;2024-02-23T01:13:41;96814.22;;;12.23;60.54
28267;BME280;15525;45.568;5.448;2024-02-23T01:16:06;96810.91;;;12.18;60.16
28267;BME280;15525;45.568;5.448;2024-02-23T01:18:33;96810.59;;;12.19;60.03
28267;BME280;15525;45.568;5.448;2024-02-23T01:20:58;96810.22;;;12.04;60.26
28267;BME280;15525;45.568;5.448;2024-02-23T01:23:24;96796.13;;;11.98;60.40
28267;BME280;15525;45.568;5.448;2024-02-23T01:25:50;96785.88;;;12.00;60.83
28267;BME280;15525;45.568;5.448;2024-02-23T01:28:15;96769.47;;;11.93;60.28
28267;BME280;15525;45.568;5.448;2024-02-23T01:30:40;96775.94;;;11.92;60.67
28267;BME280;15525;45.568;5.448;2024-02-23T01:33:06;96757.94;;;11.93;60.80
28267;BME280;15525;45.568;5.448;2024-02-23T01:35:31;96769.28;;;11.90;60.41
28267;BME280;15525;45.568;5.448;2024-02-23T01:37:57;96774.84;;;11.71;60.33
28267;BME280;15525;45.568;5.448;2024-02-23T01:40:22;96783.94;;;11.61;60.77
28267;BME280;15525;45.568;5.448;2024-02-23T01:42:47;96776.50;;;11.58;60.47
28267;BME280;15525;45.568;5.448;2024-02-23T01:45:13;96782.97;;;11.57;60.54
28267;BME280;15525;45.568;5.448;2024-02-23T01:47:38;96796.56;;;11.61;60.43
28267;BME280;15525;45.568;5.448;2024-02-23T01:50:05;96787.41;;;11.62;60.28
28267;BME280;15525;45.568;5.448;2024-02-23T01:52:31;96779.38;;;11.62;60.58
28267;BME280;15525;45.568;5.448;2024-02-23T01:54:57;96779.69;;;11.60;60.38
28267;BME280;15525;45.568;5.448;2024-02-23T01:57:23;96779.72;;;11.47;60.52
28267;BME280;15525;45.568;5.448;2024-02-23T01:59:49;96760.44;;;11.36;60.15
28267;BME280;15525;45.568;5.448;2024-02-23T02:02:15;96756.59;;;11.29;60.46
28267;BME280;15525;45.568;5.448;2024-02-23T02:04:40;96757.50;;;11.24;60.41
28267;BME280;15525;45.568;5.448;2024-02-23T02:07:06;96750.94;;;11.30;60.64
28267;BME280;15525;45.568;5.448;2024-02-23T02:09:32;96748.56;;;11.07;60.16
28267;BME280;15525;45.568;5.448;2024-02-23T02:11:57;96749.56;;;10.97;60.63
28267;BME280;15525;45.568;5.448;2024-02-23T02:14:23;96724.19;;;10.95;60.77
28267;BME280;15525;45.568;5.448;2024-02-23T02:16:48;96728.53;;;11.04;60.97
28267;BME280;15525;45.568;5.448;2024-02-23T02:19:14;96729.22;;;11.10;60.65
28267;BME280;15525;45.568;5.448;2024-02-23T02:21:40;96733.41;;;11.02;60.35
28267;BME280;15525;45.568;5.448;2024-02-23T02:24:06;96728.66;;;10.99;60.40
28267;BME280;15525;45.568;5.448;2024-02-23T02:26:32;96720.03;;;11.02;59.97
28267;BME280;15525;45.568;5.448;2024-02-23T02:28:58;96705.03;;;11.01;59.95
28267;BME280;15525;45.568;5.448;2024-02-23T02:31:23;96714.59;;;10.94;59.69
28267;BME280;15525;45.568;5.448;2024-02-23T02:33:48;96712.53;;;10.91;59.85
28267;BME280;15525;45.568;5.448;2024-02-23T02:36:14;96706.84;;;10.92;60.05
28267;BME280;15525;45.568;5.448;2024-02-23T02:38:39;96696.63;;;10.72;60.30
28267;BME280;15525;45.568;5.448;2024-02-23T02:41:05;96702.13;;;10.54;60.37
28267;BME280;15525;45.568;5.448;2024-02-23T02:43:31;96704.16;;;10.48;60.16
28267;BME280;15525;45.568;5.448;2024-02-23T02:45:57;96713.25;;;10.47;60.71
28267;BME280;15525;45.568;5.448;2024-02-23T02:48:23;96717.03;;;10.33;59.99
28267;BME280;15525;45.568;5.448;2024-02-23T02:50:48;96707.75;;;10.30;60.37
28267;BME280;15525;45.568;5.448;2024-02-23T02:53:15;96695.75;;;10.28;60.24
28267;BME280;15525;45.568;5.448;2024-02-23T02:55:42;96689.53;;;10.19;60.62
28267;BME280;15525;45.568;5.448;2024-02-23T02:58:07;96690.53;;;10.23;60.01
28267;BME280;15525;45.568;5.448;2024-02-23T03:00:33;96692.22;;;10.19;60.03
28267;BME280;15525;45.568;5.448;2024-02-23T03:02:58;96687.09;;;10.09;60.28
28267;BME280;15525;45.568;5.448;2024-02-23T03:05:24;96698.44;;;10.01;59.83
28267;BME280;15525;45.568;5.448;2024-02-23T03:07:49;96688.72;;;9.91;59.97
28267;BME280;15525;45.568;5.448;2024-02-23T03:10:15;96678.53;;;9.80;60.54
28267;BME280;15525;45.568;5.448;2024-02-23T03:12:40;96693.56;;;9.76;60.31
28267;BME280;15525;45.568;5.448;2024-02-23T03:15:06;96689.09;;;9.58;60.60
28267;BME280;15525;45.568;5.448;2024-02-23T03:17:32;96693.97;;;9.56;60.80
28267;BME280;15525;45.568;5.448;2024-02-23T03:19:58;96689.91;;;9.58;60.95
28267;BME280;15525;45.568;5.448;2024-02-23T03:22:23;96691.00;;;9.57;60.54
28267;BME280;15525;45.568;5.448;2024-02-23T03:24:49;96689.53;;;9.51;60.55
28267;BME280;15525;45.568;5.448;2024-02-23T03:27:14;96682.19;;;9.43;60.30
28267;BME280;15525;45.568;5.448;2024-02-23T03:29:39;96663.59;;;9.38;60.52
28267;BME280;15525;45.568;5.448;2024-02-23T03:32:05;96677.84;;;9.47;60.72
28267;BME280;15525;45.568;5.448;2024-02-23T03:34:31;96663.78;;;9.42;60.55
28267;BME280;15525;45.568;5.448;2024-02-23T03:36:56;96658.16;;;9.43;60.12
28267;BME280;15525;45.568;5.448;2024-02-23T03:39:23;96661.22;;;9.50;59.91
28267;BME280;15525;45.568;5.448;2024-02-23T03:41:48;96664.38;;;9.39;59.81
28267;BME280;15525;45.568;5.448;2024-02-23T03:44:14;96664.38;;;9.39;60.42
28267;BME280;15525;45.568;5.448;2024-02-23T03:46:39;96663.38;;;9.35;59.83
28267;BME280;15525;45.568;5.448;2024-02-23T03:49:05;96651.91;;;9.34;60.20
28267;BME280;15525;45.568;5.448;2024-02-23T03:51:30;96660.22;;;9.33;59.67
28267;BME280;15525;45.568;5.448;2024-02-23T03:53:58;96663.25;;;9.26;60.11
28267;BME280;15525;45.568;5.448;2024-02-23T03:56:23;96656.09;;;9.08;59.76
28267;BME280;15525;45.568;5.448;2024-02-23T03:58:48;96655.72;;;9.01;59.70
28267;BME280;15525;45.568;5.448;2024-02-23T04:01:14;96654.03;;;9.05;60.03
28267;BME280;15525;45.568;5.448;2024-02-23T04:03:39;96649.09;;;8.99;60.10
28267;BME280;15525;45.568;5.448;2024-02-23T04:06:05;96648.09;;;8.95;59.79
28267;BME280;15525;45.568;5.448;2024-02-23T04:08:32;96645.50;;;8.90;60.43
28267;BME280;15525;45.568;5.448;2024-02-23T04:10:57;96638.25;;;8.77;59.75
28267;BME280;15525;45.568;5.448;2024-02-23T04:13:22;96634.50;;;8.59;59.97
28267;BME280;15525;45.568;5.448;2024-02-23T04:15:48;96635.41;;;8.55;60.23
28267;BME280;15525;45.568;5.448;2024-02-23T04:18:13;96630.63;;;8.70;60.50
28267;BME280;15525;45.568;5.448;2024-02-23T04:20:39;96628.06;;;8.79;60.57
28267;BME280;15525;45.568;5.448;2024-02-23T04:23:04;96616.41;;;8.75;60.03
28267;BME280;15525;45.568;5.448;2024-02-23T04:25:29;96611.75;;;8.67;59.96
28267;BME280;15525;45.568;5.448;2024-02-23T04:27:55;96620.69;;;8.57;60.36
28267;BME280;15525;45.568;5.448;2024-02-23T04:30:20;96605.88;;;8.51;60.28
28267;BME280;15525;45.568;5.448;2024-02-23T04:32:46;96605.06;;;8.51;60.46
28267;BME280;15525;45.568;5.448;2024-02-23T04:35:11;96609.19;;;8.43;60.09
28267;BME280;15525;45.568;5.448;2024-02-23T04:37:36;96611.41;;;8.36;60.53
28267;BME280;15525;45.568;5.448;2024-02-23T04:40:02;96622.16;;;8.31;60.55
28267;BME280;15525;45.568;5.448;2024-02-23T04:42:29;96616.03;;;8.31;60.81
28267;BME280;15525;45.568;5.448;2024-02-23T04:44:54;96603.41;;;8.36;60.13
28267;BME280;15525;45.568;5.448;2024-02-23T04:47:20;96606.00;;;8.41;59.96
28267;BME280;15525;45.568;5.448;2024-02-23T04:49:46;96598.41;;;8.35;60.27
28267;BME280;15525;45.568;5.448;2024-02-23T04:52:11;96599.81;;;8.27;60.49
28267;BME280;15525;45.568;5.448;2024-02-23T04:54:37;96599.94;;;8.17;60.00
28267;BME280;15525;45.568;5.448;2024-02-23T04:57:02;96597.03;;;8.00;60.23
28267;BME280;15525;45.568;5.448;2024-02-23T04:59:27;96600.19;;;8.02;60.63
28267;BME280;15525;45.568;5.448;2024-02-23T05:01:53;96611.31;;;8.04;60.53
28267;BME280;15525;45.568;5.448;2024-02-23T05:04:18;96604.28;;;7.95;60.02
28267;BME280;15525;45.568;5.448;2024-02-23T05:06:44;96611.22;;;7.72;60.45
28267;BME280;15525;45.568;5.448;2024-02-23T05:09:09;96608.81;;;7.76;60.59
28267;BME280;15525;45.568;5.448;2024-02-23T05:11:35;96612.97;;;7.82;60.77
28267;BME280;15525;45.568;5.448;2024-02-23T05:14:00;96606.50;;;7.88;60.66
28267;BME280;15525;45.568;5.448;2024-02-23T05:16:26;96605.47;;;7.84;60.74
28267;BME280;15525;45.568;5.448;2024-02-23T05:18:51;96612.41;;;7.85;60.36
28267;BME280;15525;45.568;5.448;2024-02-23T05:21:17;96602.81;;;7.84;60.59
28267;BME280;15525;45.568;5.448;2024-02-23T05:23:42;96600.22;;;7.79;60.58
28267;BME280;15525;45.568;5.448;2024-02-23T05:26:08;96599.09;;;7.85;60.37
28267;BME280;15525;45.568;5.448;2024-02-23T05:28:33;96606.63;;;7.78;60.22
28267;BME280;15525;45.568;5.448;2024-02-23T05:30:58;96601.66;;;7.71;60.35
28267;BME280;15525;45.568;5.448;2024-02-23T05:33:24;96605.75;;;7.64;60.50
28267;BME280;15525;45.568;5.448;2024-02-23T05:35:50;96603.38;;;7.62;60.59
28267;BME280;15525;45.568;5.448;2024-02-23T05:38:16;96614.00;;;7.62;60.72
28267;BME280;15525;45.568;5.448;2024-02-23T05:40:42;96606.31;;;7.61;60.29
28267;BME280;15525;45.568;5.448;2024-02-23T05:43:07;96612.16;;;7.63;60.70
28267;BME280;15525;45.568;5.448;2024-02-23T05:45:33;96609.50;;;7.63;60.22
28267;BME280;15525;45.568;5.448;2024-02-23T05:47:58;96602.34;;;7.58;60.43
28267;BME280;15525;45.568;5.448;2024-02-23T05:50:23;96609.84;;;7.56;60.57
28267;BME280;15525;45.568;5.448;2024-02-23T05:52:49;96607.66;;;7.58;60.42
28267;BME280;15525;45.568;5.448;2024-02-23T05:55:14;96607.47;;;7.55;60.62
28267;BME280;15525;45.568;5.448;2024-02-23T05:57:40;96607.03;;;7.48;60.33
28267;BME280;15525;45.568;5.448;2024-02-23T06:00:06;96623.50;;;7.50;60.25
28267;BME280;15525;45.568;5.448;2024-02-23T06:02:32;96621.91;;;7.49;60.52
28267;BME280;15525;45.568;5.448;2024-02-23T06:04:58;96622.06;;;7.34;60.57
28267;BME280;15525;45.568;5.448;2024-02-23T06:07:23;96623.63;;;7.40;60.63
28267;BME280;15525;45.568;5.448;2024-02-23T06:09:55;96630.28;;;7.37;60.49
28267;BME280;15525;45.568;5.448;2024-02-23T06:12:21;96628.47;;;7.33;60.65
28267;BME280;15525;45.568;5.448;2024-02-23T06:14:46;96634.81;;;7.37;60.79
28267;BME280;15525;45.568;5.448;2024-02-23T06:17:12;96624.16;;;7.37;60.22
28267;BME280;15525;45.568;5.448;2024-02-23T06:19:37;96626.41;;;7.30;60.50
28267;BME280;15525;45.568;5.448;2024-02-23T06:22:02;96624.84;;;7.24;60.32
28267;BME280;15525;45.568;5.448;2024-02-23T06:24:28;96619.78;;;7.22;60.70
28267;BME280;15525;45.568;5.448;2024-02-23T06:26:53;96621.69;;;7.22;60.47
28267;BME280;15525;45.568;5.448;2024-02-23T06:29:19;96627.44;;;7.29;60.60
28267;BME280;15525;45.568;5.448;2024-02-23T06:31:44;96634.41;;;7.25;60.50
28267;BME280;15525;45.568;5.448;2024-02-23T06:34:14;96621.97;;;7.20;60.76
28267;BME280;15525;45.568;5.448;2024-02-23T06:36:39;96626.47;;;7.20;60.63
28267;BME280;15525;45.568;5.448;2024-02-23T06:39:05;96625.16;;;7.17;60.80
28267;BME280;15525;45.568;5.448;2024-02-23T06:41:30;96632.94;;;7.14;60.61
28267;BME280;15525;45.568;5.448;2024-02-23T06:43:56;96628.69;;;7.13;60.48
28267;BME280;15525;45.568;5.448;2024-02-23T06:46:22;96619.13;;;7.12;60.46
28267;BME280;15525;45.568;5.448;2024-02-23T06:48:47;96617.78;;;7.14;60.46
28267;BME280;15525;45.568;5.448;2024-02-23T06:51:13;96615.06;;;7.19;60.44
28267;BME280;15525;45.568;5.448;2024-02-23T06:53:39;96616.97;;;7.14;60.60
28267;BME280;15525;45.568;5.448;2024-02-23T06:56:05;96615.16;;;7.09;60.54
28267;BME280;15525;45.568;5.448;2024-02-23T06:58:30;96604.28;;;7.06;60.66
28267;BME280;15525;45.568;5.448;2024-02-23T07:00:56;96605.59;;;7.08;60.72
28267;BME280;15525;45.568;5.448;2024-02-23T07:03:21;96602.16;;;7.08;60.72
28267;BME280;15525;45.568;5.448;2024-02-23T07:05:47;96618.38;;;7.06;60.65
28267;BME280;15525;45.568;5.448;2024-02-23T07:08:13;96620.25;;;7.06;60.80
28267;BME280;15525;45.568;5.448;2024-02-23T07:10:38;96634.34;;;7.06;60.47
28267;BME280;15525;45.568;5.448;2024-02-23T07:13:05;96628.53;;;7.04;60.75
28267;BME280;15525;45.568;5.448;2024-02-23T07:15:32;96632.13;;;7.13;60.63
28267;BME280;15525;45.568;5.448;2024-02-23T07:17:58;96633.69;;;7.19;60.36
28267;BME280;15525;45.568;5.448;2024-02-23T07:20:23;96627.50;;;7.24;60.59
28267;BME280;15525;45.568;5.448;2024-02-23T07:22:49;96630.28;;;7.37;60.81
28267;BME280;15525;45.568;5.448;2024-02-23T07:25:17;96635.72;;;7.51;60.66
28267;BME280;15525;45.568;5.448;2024-02-23T07:27:44;96627.38;;;7.57;60.23
28267;BME280;15525;45.568;5.448;2024-02-23T07:30:11;96627.84;;;7.64;60.46
28267;BME280;15525;45.568;5.448;2024-02-23T07:32:36;96636.44;;;7.80;60.14
28267;BME280;15525;45.568;5.448;2024-02-23T07:35:02;96630.84;;;8.00;59.91
28267;BME280;15525;45.568;5.448;2024-02-23T07:37:29;96636.47;;;8.17;59.58
28267;BME280;15525;45.568;5.448;2024-02-23T07:39:54;96626.34;;;8.37;59.46
28267;BME280;15525;45.568;5.448;2024-02-23T07:42:19;96634.22;;;8.61;59.64
28267;BME280;15525;45.568;5.448;2024-02-23T07:44:45;96633.84;;;8.86;59.29
28267;BME280;15525;45.568;5.448;2024-02-23T07:47:13;96633.19;;;9.07;58.64
28267;BME280;15525;45.568;5.448;2024-02-23T07:49:39;96641.09;;;9.26;58.09
28267;BME280;15525;45.568;5.448;2024-02-23T07:52:06;96624.03;;;9.40;58.16
28267;BME280;15525;45.568;5.448;2024-02-23T07:54:32;96631.34;;;9.62;58.21
28267;BME280;15525;45.568;5.448;2024-02-23T07:56:58;96626.78;;;9.76;57.63
28267;BME280;15525;45.568;5.448;2024-02-23T07:59:24;96613.81;;;9.83;57.34
28267;BME280;15525;45.568;5.448;2024-02-23T08:01:49;96616.72;;;9.73;57.37
28267;BME280;15525;45.568;5.448;2024-02-23T08:04:14;96611.25;;;9.78;57.59
28267;BME280;15525;45.568;5.448;2024-02-23T08:06:41;96603.13;;;9.83;58.51
28267;BME280;15525;45.568;5.448;2024-02-23T08:09:08;96597.97;;;10.00;57.94
28267;BME280;15525;45.568;5.448;2024-02-23T08:11:33;96601.22;;;9.97;58.23
28267;BME280;15525;45.568;5.448;2024-02-23T08:13:59;96602.63;;;10.08;58.28
28267;BME280;15525;45.568;5.448;2024-02-23T08:16:24;96595.72;;;10.29;57.49
28267;BME280;15525;45.568;5.448;2024-02-23T08:18:49;96589.31;;;10.52;57.93
28267;BME280;15525;45.568;5.448;2024-02-23T08:21:15;96602.00;;;10.68;57.42
28267;BME280;15525;45.568;5.448;2024-02-23T08:23:40;96596.78;;;10.85;57.60
28267;BME280;15525;45.568;5.448;2024-02-23T08:26:06;96593.25;;;11.07;57.34
28267;BME280;15525;45.568;5.448;2024-02-23T08:28:31;96588.59;;;11.21;56.68
28267;BME280;15525;45.568;5.448;2024-02-23T08:30:57;96587.13;;;11.37;56.38
28267;BME280;15525;45.568;5.448;2024-02-23T08:33:22;96597.25;;;11.48;56.54
28267;BME280;15525;45.568;5.448;2024-02-23T08:35:48;96578.69;;;11.60;56.30
28267;BME280;15525;45.568;5.448;2024-02-23T08:38:14;96583.00;;;11.78;56.27
28267;BME280;15525;45.568;5.448;2024-02-23T08:40:39;96582.44;;;11.99;55.67
28267;BME280;15525;45.568;5.448;2024-02-23T08:43:05;96579.28;;;12.14;55.82
28267;BME280;15525;45.568;5.448;2024-02-23T08:45:30;96577.88;;;12.33;55.43
28267;BME280;15525;45.568;5.448;2024-02-23T08:47:56;96574.84;;;12.52;55.44
28267;BME280;15525;45.568;5.448;2024-02-23T08:50:21;96577.84;;;12.67;55.13
28267;BME280;15525;45.568;5.448;2024-02-23T08:52:47;96570.09;;;12.83;54.58
28267;BME280;15525;45.568;5.448;2024-02-23T08:55:12;96557.91;;;13.02;54.49
28267;BME280;15525;45.568;5.448;2024-02-23T08:57:37;96563.63;;;13.30;53.93
28267;BME280;15525;45.568;5.448;2024-02-23T09:00:04;96552.03;;;13.46;53.55
28267;BME280;15525;45.568;5.448;2024-02-23T09:02:30;96565.00;;;13.73;53.24
28267;BME280;15525;45.568;5.448;2024-02-23T09:04:57;96552.53;;;13.98;52.55
28267;BME280;15525;45.568;5.448;2024-02-23T09:07:23;96550.69;;;14.10;51.73
28267;BME280;15525;45.568;5.448;2024-02-23T09:09:49;96543.53;;;14.23;51.28
28267;BME280;15525;45.568;5.448;2024-02-23T09:12:15;96551.38;;;14.48;51.09
28267;BME280;15525;45.568;5.448;2024-02-23T09:14:42;96541.09;;;14.30;50.52
28267;BME280;15525;45.568;5.448;2024-02-23T09:17:08;96537.97;;;13.99;50.64
28267;BME280;15525;45.568;5.448;2024-02-23T09:19:35;96548.03;;;14.31;50.07
28267;BME280;15525;45.568;5.448;2024-02-23T09:22:02;96544.41;;;14.47;49.60
28267;BME280;15525;45.568;5.448;2024-02-23T09:24:27;96531.16;;;14.42;49.54
28267;BME280;15525;45.568;5.448;2024-02-23T09:26:52;96531.59;;;14.65;48.36
28267;BME280;15525;45.568;5.448;2024-02-23T09:29:18;96535.47;;;14.55;49.32
28267;BME280;15525;45.568;5.448;2024-02-23T09:31:44;96533.75;;;14.71;48.08
28267;BME280;15525;45.568;5.448;2024-02-23T09:34:09;96518.28;;;14.92;47.78
28267;BME280;15525;45.568;5.448;2024-02-23T09:36:34;96519.69;;;15.10;47.55
28267;BME280;15525;45.568;5.448;2024-02-23T09:39:00;96523.06;;;15.19;46.74
28267;BME280;15525;45.568;5.448;2024-02-23T09:41:27;96532.72;;;15.08;47.12
28267;BME280;15525;45.568;5.448;2024-02-23T09:43:58;96515.16;;;15.02;45.55
28267;BME280;15525;45.568;5.448;2024-02-23T09:46:25;96524.97;;;15.19;46.56
28267;BME280;15525;45.568;5.448;2024-02-23T09:48:51;96511.81;;;15.29;46.43
28267;BME280;15525;45.568;5.448;2024-02-23T09:51:16;96503.75;;;15.65;45.96
28267;BME280;15525;45.568;5.448;2024-02-23T09:53:43;96514.44;;;15.62;45.58
28267;BME280;15525;45.568;5.448;2024-02-23T09:56:09;96505.34;;;15.66;45.20
28267;BME280;15525;45.568;5.448;2024-02-23T09:58:35;96501.50;;;15.91;45.00
28267;BME280;15525;45.568;5.448;2024-02-23T10:01:04;96501.91;;;16.45;43.23
28267;BME280;15525;45.568;5.448;2024-02-23T10:03:30;96507.75;;;16.74;43.56
28267;BME280;15525;45.568;5.448;2024-02-23T10:05:59;96499.09;;;16.69;42.75
28267;BME280;15525;45.568;5.448;2024-02-23T10:08:27;96501.66;;;16.50;44.40
28267;BME280;15525;45.568;5.448;2024-02-23T10:10:52;96499.91;;;16.30;44.42
28267;BME280;15525;45.568;5.448;2024-02-23T10:13:19;96489.25;;;16.21;44.29
28267;BME280;15525;45.568;5.448;2024-02-23T10:15:46;96491.25;;;16.24;44.72
28267;BME280;15525;45.568;5.448;2024-02-23T10:18:12;96490.09;;;16.37;43.62
28267;BME280;15525;45.568;5.448;2024-02-23T10:20:37;96472.13;;;16.41;43.71
28267;BME280;15525;45.568;5.448;2024-02-23T10:23:04;96470.94;;;16.54;43.14
28267;BME280;15525;45.568;5.448;2024-02-23T10:25:29;96479.53;;;16.60;43.20
28267;BME280;15525;45.568;5.448;2024-02-23T10:27:55;96472.63;;;16.90;43.24
28267;BME280;15525;45.568;5.448;2024-02-23T10:30:20;96470.47;;;17.11;42.75
28267;BME280;15525;45.568;5.448;2024-02-23T10:32:46;96473.06;;;16.92;43.16
28267;BME280;15525;45.568;5.448;2024-02-23T10:35:15;96482.13;;;16.41;41.51
28267;BME280;15525;45.568;5.448;2024-02-23T10:37:48;96478.94;;;16.11;41.87
28267;BME280;15525;45.568;5.448;2024-02-23T10:40:16;96480.44;;;16.36;43.03
28267;BME280;15525;45.568;5.448;2024-02-23T10:42:43;96476.03;;;17.02;41.76
28267;BME280;15525;45.568;5.448;2024-02-23T10:45:14;96472.72;;;16.93;41.14
28267;BME280;15525;45.568;5.448;2024-02-23T10:47:40;96464.28;;;17.10;41.21
28267;BME280;15525;45.568;5.448;2024-02-23T10:50:07;96465.13;;;17.30;39.95
28267;BME280;15525;45.568;5.448;2024-02-23T10:52:33;96478.13;;;17.24;40.49
28267;BME280;15525;45.568;5.448;2024-02-23T10:55:02;96468.19;;;17.59;38.77
28267;BME280;15525;45.568;5.448;2024-02-23T10:57:32;96463.25;;;17.99;39.50
28267;BME280;15525;45.568;5.448;2024-02-23T11:00:00;96459.13;;;17.86;39.12
28267;BME280;15525;45.568;5.448;2024-02-23T11:02:27;96460.06;;;18.13;38.12
28267;BME280;15525;45.568;5.448;2024-02-23T11:04:56;96458.56;;;17.96;39.01
28267;BME280;15525;45.568;5.448;2024-02-23T11:07:22;96459.94;;;17.71;39.21
28267;BME280;15525;45.568;5.448;2024-02-23T11:09:54;96458.94;;;17.45;37.08
28267;BME280;15525;45.568;5.448;2024-02-23T11:12:29;96446.44;;;17.90;36.44
28267;BME280;15525;45.568;5.448;2024-02-23T11:14:58;96454.03;;;18.38;37.05
28267;BME280;15525;45.568;5.448;2024-02-23T11:17:27;96449.75;;;18.18;37.38
28267;BME280;15525;45.568;5.448;2024-02-23T11:19:54;96450.72;;;17.91;37.13
28267;BME280;15525;45.568;5.448;2024-02-23T11:22:40;96441.47;;;17.58;37.03
28267;BME280;15525;45.568;5.448;2024-02-23T11:25:07;96449.78;;;17.18;37.57
28267;BME280;15525;45.568;5.448;2024-02-23T11:27:37;96445.22;;;17.38;37.66
28267;BME280;15525;45.568;5.448;2024-02-23T11:30:04;96445.16;;;17.34;37.43
28267;BME280;15525;45.568;5.448;2024-02-23T11:32:43;96452.41;;;17.80;35.71
28267;BME280;15525;45.568;5.448;2024-02-23T11:35:13;96449.06;;;17.52;36.40
28267;BME280;15525;45.568;5.448;2024-02-23T11:37:54;96458.63;;;17.81;36.51
28267;BME280;15525;45.568;5.448;2024-02-23T11:40:27;96437.88;;;17.69;37.73
28267;BME280;15525;45.568;5.448;2024-02-23T11:42:54;96441.16;;;17.28;38.19
28267;BME280;15525;45.568;5.448;2024-02-23T11:45:20;96447.06;;;17.49;37.57
28267;BME280;15525;45.568;5.448;2024-02-23T11:47:45;96429.44;;;17.55;36.57
28267;BME280;15525;45.568;5.448;2024-02-23T11:50:10;96429.00;;;18.07;36.36
28267;BME280;15525;45.568;5.448;2024-02-23T11:52:39;96427.34;;;18.21;36.71
28267;BME280;15525;45.568;5.448;2024-02-23T11:55:05;96423.81;;;18.36;36.57
28267;BME280;15525;45.568;5.448;2024-02-23T11:57:32;96418.47;;;18.40;36.49
28267;BME280;15525;45.568;5.448;2024-02-23T11:59:58;96419.63;;;18.84;36.33
28267;BME280;15525;45.568;5.448;2024-02-23T12:02:24;96419.09;;;18.52;37.07
28267;BME280;15525;45.568;5.448;2024-02-23T12:04:49;96409.25;;;18.06;37.92
28267;BME280;15525;45.568;5.448;2024-02-23T12:07:15;96404.34;;;17.39;38.08
28267;BME280;15525;45.568;5.448;2024-02-23T12:09:41;96412.31;;;17.01;37.84
28267;BME280;15525;45.568;5.448;2024-02-23T12:12:07;96411.88;;;16.68;37.95
28267;BME280;15525;45.568;5.448;2024-02-23T12:14:35;96415.50;;;16.60;38.31
28267;BME280;15525;45.568;5.448;2024-02-23T12:17:02;96417.00;;;16.73;37.93
28267;BME280;15525;45.568;5.448;2024-02-23T12:19:29;96420.44;;;16.15;38.46
28267;BME280;15525;45.568;5.448;2024-02-23T12:22:00;96421.91;;;15.85;37.03
28267;BME280;15525;45.568;5.448;2024-02-23T12:24:25;96419.16;;;15.97;37.55
28267;BME280;15525;45.568;5.448;2024-02-23T12:26:56;96415.50;;;16.17;37.49
28267;BME280;15525;45.568;5.448;2024-02-23T12:29:23;96415.31;;;15.98;37.52
28267;BME280;15525;45.568;5.448;2024-02-23T12:31:48;96404.69;;;15.90;37.78
28267;BME280;15525;45.568;5.448;2024-02-23T12:34:14;96401.50;;;16.00;37.53
28267;BME280;15525;45.568;5.448;2024-02-23T12:36:39;96410.72;;;15.99;36.92
28267;BME280;15525;45.568;5.448;2024-02-23T12:39:05;96404.44;;;15.67;37.32
28267;BME280;15525;45.568;5.448;2024-02-23T12:41:31;96394.13;;;15.85;37.45
28267;BME280;15525;45.568;5.448;2024-02-23T12:43:57;96398.69;;;15.69;37.79
28267;BME280;15525;45.568;5.448;2024-02-23T12:46:22;96392.03;;;15.78;37.39
28267;BME280;15525;45.568;5.448;2024-02-23T12:48:49;96394.06;;;15.69;37.68
28267;BME280;15525;45.568;5.448;2024-02-23T12:51:14;96391.22;;;15.78;37.74
28267;BME280;15525;45.568;5.448;2024-02-23T12:53:42;96383.94;;;15.66;38.32
28267;BME280;15525;45.568;5.448;2024-02-23T12:56:12;96392.03;;;15.66;37.29
28267;BME280;15525;45.568;5.448;2024-02-23T12:58:42;96388.44;;;15.74;38.39